sensor_id;sensor_type;location;lat;lon;timestamp;temperature;humidity
24097;DHT22;12275;48.550;12.132;2022-12-13T00:02:04;-3.80;99.90
24097;DHT22;12275;48.550;12.132;2022-12-13T00:04:30;-3.80;99.90
24097;DHT22;12275;48.550;12.132;2022-12-13T00:06:56;-3.90;99.90
24097;DHT22;12275;48.550;12.132;2022-12-13T00:09:22;-3.90;99.90
24097;DHT22;12275;48.550;12.132;2022-12-13T00:11:47;-3.90;99.90
24097;DHT22;12275;48.550;12.132;2022-12-13T00:14:14;-3.80;99.90
24097;DHT22;12275;48.550;12.132;2022-12-13T00:16:39;-3.90;99.90
24097;DHT22;12275;48.550;12.132;2022-12-13T00:19:05;-3.90;99.90
24097;DHT22;12275;48.550;12.132;2022-12-13T00:21:31;-3.90;99.90
24097;DHT22;12275;48.550;12.132;2022-12-13T00:23:57;-3.80;99.90
24097;DHT22;12275;48.550;12.132;2022-12-13T00:26:24;-4.00;99.90
24097;DHT22;12275;48.550;12.132;2022-12-13T00:28:50;-4.20;99.90
24097;DHT22;12275;48.550;12.132;2022-12-13T00:31:18;-4.00;99.90
24097;DHT22;12275;48.550;12.132;2022-12-13T00:33:44;-3.90;99.90
24097;DHT22;12275;48.550;12.132;2022-12-13T00:36:09;-3.90;99.90
24097;DHT22;12275;48.550;12.132;2022-12-13T00:38:35;-3.90;99.90
24097;DHT22;12275;48.550;12.132;2022-12-13T00:41:11;-4.00;99.90
24097;DHT22;12275;48.550;12.132;2022-12-13T00:43:37;-3.90;99.90
24097;DHT22;12275;48.550;12.132;2022-12-13T00:46:03;-3.90;99.90
24097;DHT22;12275;48.550;12.132;2022-12-13T00:48:28;-3.90;99.90
24097;DHT22;12275;48.550;12.132;2022-12-13T00:50:54;-4.00;99.90
24097;DHT22;12275;48.550;12.132;2022-12-13T00:53:19;-4.00;99.90
24097;DHT22;12275;48.550;12.132;2022-12-13T00:55:45;-3.90;99.90
24097;DHT22;12275;48.550;12.132;2022-12-13T00:58:10;-3.90;99.90
24097;DHT22;12275;48.550;12.132;2022-12-13T01:00:36;-4.00;99.90
24097;DHT22;12275;48.550;12.132;2022-12-13T01:03:01;-4.00;99.90
24097;DHT22;12275;48.550;12.132;2022-12-13T01:05:47;-4.00;99.90
24097;DHT22;12275;48.550;12.132;2022-12-13T01:08:13;-4.10;99.90
24097;DHT22;12275;48.550;12.132;2022-12-13T01:10:45;-4.10;99.90
24097;DHT22;12275;48.550;12.132;2022-12-13T01:13:11;-4.10;99.90
24097;DHT22;12275;48.550;12.132;2022-12-13T01:15:41;-4.10;99.90
24097;DHT22;12275;48.550;12.132;2022-12-13T01:18:06;-4.10;99.90
24097;DHT22;12275;48.550;12.132;2022-12-13T01:20:32;-4.30;99.90
24097;DHT22;12275;48.550;12.132;2022-12-13T01:22:58;-4.30;99.90
24097;DHT22;12275;48.550;12.132;2022-12-13T01:25:23;-4.30;99.90
24097;DHT22;12275;48.550;12.132;2022-12-13T01:27:49;-4.30;99.90
24097;DHT22;12275;48.550;12.132;2022-12-13T01:30:14;-4.20;99.90
24097;DHT22;12275;48.550;12.132;2022-12-13T01:32:40;-4.20;99.90
24097;DHT22;12275;48.550;12.132;2022-12-13T01:35:05;-4.20;99.90
24097;DHT22;12275;48.550;12.132;2022-12-13T01:37:31;-4.20;99.90
24097;DHT22;12275;48.550;12.132;2022-12-13T01:39:56;-4.30;99.90
24097;DHT22;12275;48.550;12.132;2022-12-13T01:42:22;-4.30;99.90
24097;DHT22;12275;48.550;12.132;2022-12-13T01:44:55;-4.30;99.90
24097;DHT22;12275;48.550;12.132;2022-12-13T01:49:50;-4.40;99.90
24097;DHT22;12275;48.550;12.132;2022-12-13T01:52:16;-4.40;99.90
24097;DHT22;12275;48.550;12.132;2022-12-13T01:54:43;-4.40;99.90
24097;DHT22;12275;48.550;12.132;2022-12-13T01:57:10;-4.30;99.90
24097;DHT22;12275;48.550;12.132;2022-12-13T01:59:37;-4.40;99.90
24097;DHT22;12275;48.550;12.132;2022-12-13T02:02:04;-4.40;99.90
24097;DHT22;12275;48.550;12.132;2022-12-13T02:04:35;-4.40;99.90
24097;DHT22;12275;48.550;12.132;2022-12-13T02:07:04;-4.40;99.90
24097;DHT22;12275;48.550;12.132;2022-12-13T02:09:30;-4.30;99.90
24097;DHT22;12275;48.550;12.132;2022-12-13T02:11:55;-4.30;99.90
24097;DHT22;12275;48.550;12.132;2022-12-13T02:14:21;-4.40;99.90
24097;DHT22;12275;48.550;12.132;2022-12-13T02:16:59;-4.60;99.90
24097;DHT22;12275;48.550;12.132;2022-12-13T02:24:42;-4.60;99.90
24097;DHT22;12275;48.550;12.132;2022-12-13T02:27:27;-4.50;99.90
24097;DHT22;12275;48.550;12.132;2022-12-13T02:32:45;-4.50;99.90
24097;DHT22;12275;48.550;12.132;2022-12-13T02:40:07;-4.50;99.90
24097;DHT22;12275;48.550;12.132;2022-12-13T02:42:34;-4.50;99.90
24097;DHT22;12275;48.550;12.132;2022-12-13T02:45:02;-4.40;99.90
24097;DHT22;12275;48.550;12.132;2022-12-13T02:47:29;-4.50;99.90
24097;DHT22;12275;48.550;12.132;2022-12-13T02:49:56;-4.50;99.90
24097;DHT22;12275;48.550;12.132;2022-12-13T02:52:23;-4.50;99.90
24097;DHT22;12275;48.550;12.132;2022-12-13T02:54:49;-4.60;99.90
24097;DHT22;12275;48.550;12.132;2022-12-13T02:57:34;-4.60;99.90
24097;DHT22;12275;48.550;12.132;2022-12-13T03:00:03;-4.60;99.90
24097;DHT22;12275;48.550;12.132;2022-12-13T03:07:59;-4.70;99.90
24097;DHT22;12275;48.550;12.132;2022-12-13T03:10:37;-4.70;99.90
24097;DHT22;12275;48.550;12.132;2022-12-13T03:13:06;-4.70;99.90
24097;DHT22;12275;48.550;12.132;2022-12-13T03:15:57;-4.60;99.90
24097;DHT22;12275;48.550;12.132;2022-12-13T03:18:27;-4.70;99.90
24097;DHT22;12275;48.550;12.132;2022-12-13T03:21:04;-4.70;99.90
24097;DHT22;12275;48.550;12.132;2022-12-13T03:23:30;-4.70;99.90
24097;DHT22;12275;48.550;12.132;2022-12-13T03:25:57;-4.70;99.90
24097;DHT22;12275;48.550;12.132;2022-12-13T03:28:24;-4.80;99.90
24097;DHT22;12275;48.550;12.132;2022-12-13T03:30:50;-4.80;99.90
24097;DHT22;12275;48.550;12.132;2022-12-13T03:33:15;-4.80;99.90
24097;DHT22;12275;48.550;12.132;2022-12-13T03:35:41;-4.80;99.90
24097;DHT22;12275;48.550;12.132;2022-12-13T03:38:07;-4.70;99.90
24097;DHT22;12275;48.550;12.132;2022-12-13T03:40:33;-4.70;99.90
24097;DHT22;12275;48.550;12.132;2022-12-13T03:42:58;-4.70;99.90
24097;DHT22;12275;48.550;12.132;2022-12-13T03:45:24;-4.80;99.90
24097;DHT22;12275;48.550;12.132;2022-12-13T03:47:50;-4.80;99.90
24097;DHT22;12275;48.550;12.132;2022-12-13T03:50:15;-4.80;99.90
24097;DHT22;12275;48.550;12.132;2022-12-13T03:52:41;-4.80;99.90
24097;DHT22;12275;48.550;12.132;2022-12-13T03:55:07;-4.80;99.90
24097;DHT22;12275;48.550;12.132;2022-12-13T03:57:32;-5.00;99.90
24097;DHT22;12275;48.550;12.132;2022-12-13T03:59:58;-4.90;99.90
24097;DHT22;12275;48.550;12.132;2022-12-13T04:02:23;-4.80;99.90
24097;DHT22;12275;48.550;12.132;2022-12-13T04:04:49;-4.90;99.90
24097;DHT22;12275;48.550;12.132;2022-12-13T04:07:14;-4.80;99.90
24097;DHT22;12275;48.550;12.132;2022-12-13T04:09:40;-4.80;99.90
24097;DHT22;12275;48.550;12.132;2022-12-13T04:12:05;-4.70;99.90
24097;DHT22;12275;48.550;12.132;2022-12-13T04:14:49;-4.70;99.90
24097;DHT22;12275;48.550;12.132;2022-12-13T04:17:15;-4.70;99.90
24097;DHT22;12275;48.550;12.132;2022-12-13T04:19:40;-4.80;99.90
24097;DHT22;12275;48.550;12.132;2022-12-13T04:22:06;-4.70;99.90
24097;DHT22;12275;48.550;12.132;2022-12-13T04:24:31;-4.80;99.90
24097;DHT22;12275;48.550;12.132;2022-12-13T04:26:57;-4.80;99.90
24097;DHT22;12275;48.550;12.132;2022-12-13T04:29:23;-4.80;99.90
24097;DHT22;12275;48.550;12.132;2022-12-13T04:31:48;-4.80;99.90
24097;DHT22;12275;48.550;12.132;2022-12-13T04:34:14;-4.80;99.90
24097;DHT22;12275;48.550;12.132;2022-12-13T04:36:39;-4.80;99.90
24097;DHT22;12275;48.550;12.132;2022-12-13T04:39:06;-4.70;99.90
24097;DHT22;12275;48.550;12.132;2022-12-13T04:41:35;-4.70;99.90
24097;DHT22;12275;48.550;12.132;2022-12-13T04:44:01;-4.70;99.90
24097;DHT22;12275;48.550;12.132;2022-12-13T04:46:27;-4.80;99.90
24097;DHT22;12275;48.550;12.132;2022-12-13T04:48:52;-4.90;99.90
24097;DHT22;12275;48.550;12.132;2022-12-13T04:51:18;-4.80;99.90
24097;DHT22;12275;48.550;12.132;2022-12-13T04:53:43;-4.80;99.90
24097;DHT22;12275;48.550;12.132;2022-12-13T04:56:09;-4.70;99.90
24097;DHT22;12275;48.550;12.132;2022-12-13T04:58:35;-4.70;99.90
24097;DHT22;12275;48.550;12.132;2022-12-13T05:01:00;-4.60;99.90
24097;DHT22;12275;48.550;12.132;2022-12-13T05:03:26;-4.70;99.90
24097;DHT22;12275;48.550;12.132;2022-12-13T05:05:52;-4.70;99.90
24097;DHT22;12275;48.550;12.132;2022-12-13T05:08:18;-4.80;99.90
24097;DHT22;12275;48.550;12.132;2022-12-13T05:10:43;-4.70;99.90
24097;DHT22;12275;48.550;12.132;2022-12-13T05:13:09;-4.60;99.90
24097;DHT22;12275;48.550;12.132;2022-12-13T05:15:35;-4.70;99.90
24097;DHT22;12275;48.550;12.132;2022-12-13T05:18:02;-4.70;99.90
24097;DHT22;12275;48.550;12.132;2022-12-13T05:20:29;-4.60;99.90
24097;DHT22;12275;48.550;12.132;2022-12-13T05:22:55;-4.60;99.90
24097;DHT22;12275;48.550;12.132;2022-12-13T05:25:22;-4.70;99.90
24097;DHT22;12275;48.550;12.132;2022-12-13T05:27:48;-4.80;99.90
24097;DHT22;12275;48.550;12.132;2022-12-13T05:30:14;-4.80;99.90
24097;DHT22;12275;48.550;12.132;2022-12-13T05:32:39;-4.70;99.90
24097;DHT22;12275;48.550;12.132;2022-12-13T05:35:05;-4.70;99.90
24097;DHT22;12275;48.550;12.132;2022-12-13T05:37:31;-4.70;99.90
24097;DHT22;12275;48.550;12.132;2022-12-13T05:39:56;-4.70;99.90
24097;DHT22;12275;48.550;12.132;2022-12-13T05:42:22;-4.80;99.90
24097;DHT22;12275;48.550;12.132;2022-12-13T05:44:48;-4.90;99.90
24097;DHT22;12275;48.550;12.132;2022-12-13T05:47:13;-4.90;99.90
24097;DHT22;12275;48.550;12.132;2022-12-13T05:49:39;-5.00;99.90
24097;DHT22;12275;48.550;12.132;2022-12-13T05:52:04;-4.90;99.90
24097;DHT22;12275;48.550;12.132;2022-12-13T05:54:30;-4.90;99.90
24097;DHT22;12275;48.550;12.132;2022-12-13T05:56:55;-4.90;99.90
24097;DHT22;12275;48.550;12.132;2022-12-13T05:59:21;-4.80;99.90
24097;DHT22;12275;48.550;12.132;2022-12-13T06:01:46;-4.90;99.90
24097;DHT22;12275;48.550;12.132;2022-12-13T06:04:12;-4.80;99.90
24097;DHT22;12275;48.550;12.132;2022-12-13T06:06:37;-4.70;99.90
24097;DHT22;12275;48.550;12.132;2022-12-13T06:09:03;-4.70;99.90
24097;DHT22;12275;48.550;12.132;2022-12-13T06:11:28;-4.70;99.90
24097;DHT22;12275;48.550;12.132;2022-12-13T06:13:54;-4.70;99.90
24097;DHT22;12275;48.550;12.132;2022-12-13T06:16:20;-4.70;99.90
24097;DHT22;12275;48.550;12.132;2022-12-13T06:18:45;-4.60;99.90
24097;DHT22;12275;48.550;12.132;2022-12-13T06:21:11;-4.70;99.90
24097;DHT22;12275;48.550;12.132;2022-12-13T06:23:37;-4.70;99.90
24097;DHT22;12275;48.550;12.132;2022-12-13T06:26:03;-4.60;99.90
24097;DHT22;12275;48.550;12.132;2022-12-13T06:28:28;-4.60;99.90
24097;DHT22;12275;48.550;12.132;2022-12-13T06:30:54;-4.60;99.90
24097;DHT22;12275;48.550;12.132;2022-12-13T06:33:19;-4.70;99.90
24097;DHT22;12275;48.550;12.132;2022-12-13T06:35:45;-4.70;99.90
24097;DHT22;12275;48.550;12.132;2022-12-13T06:38:11;-4.70;99.90
24097;DHT22;12275;48.550;12.132;2022-12-13T06:40:38;-4.80;99.90
24097;DHT22;12275;48.550;12.132;2022-12-13T06:43:04;-4.80;99.90
24097;DHT22;12275;48.550;12.132;2022-12-13T06:45:29;-4.80;99.90
24097;DHT22;12275;48.550;12.132;2022-12-13T06:47:55;-4.70;99.90
24097;DHT22;12275;48.550;12.132;2022-12-13T06:50:21;-4.70;99.90
24097;DHT22;12275;48.550;12.132;2022-12-13T06:52:46;-4.70;99.90
24097;DHT22;12275;48.550;12.132;2022-12-13T06:55:12;-4.70;99.90
24097;DHT22;12275;48.550;12.132;2022-12-13T06:57:38;-4.80;99.90
24097;DHT22;12275;48.550;12.132;2022-12-13T07:00:03;-4.80;99.90
24097;DHT22;12275;48.550;12.132;2022-12-13T07:02:29;-4.80;99.90
24097;DHT22;12275;48.550;12.132;2022-12-13T07:04:55;-4.90;99.90
24097;DHT22;12275;48.550;12.132;2022-12-13T07:07:21;-4.80;99.90
24097;DHT22;12275;48.550;12.132;2022-12-13T07:09:46;-4.90;99.90
24097;DHT22;12275;48.550;12.132;2022-12-13T07:12:12;-4.80;99.90
24097;DHT22;12275;48.550;12.132;2022-12-13T07:14:37;-4.70;99.90
24097;DHT22;12275;48.550;12.132;2022-12-13T07:17:03;-4.80;99.90
24097;DHT22;12275;48.550;12.132;2022-12-13T07:19:29;-4.80;99.90
24097;DHT22;12275;48.550;12.132;2022-12-13T07:21:54;-4.80;99.90
24097;DHT22;12275;48.550;12.132;2022-12-13T07:24:20;-4.80;99.90
24097;DHT22;12275;48.550;12.132;2022-12-13T07:26:46;-4.80;99.90
24097;DHT22;12275;48.550;12.132;2022-12-13T07:29:11;-4.90;99.90
24097;DHT22;12275;48.550;12.132;2022-12-13T07:31:37;-4.80;99.90
24097;DHT22;12275;48.550;12.132;2022-12-13T07:34:03;-4.80;99.90
24097;DHT22;12275;48.550;12.132;2022-12-13T07:36:28;-4.80;99.90
24097;DHT22;12275;48.550;12.132;2022-12-13T07:38:54;-4.90;99.90
24097;DHT22;12275;48.550;12.132;2022-12-13T07:41:21;-4.80;99.90
24097;DHT22;12275;48.550;12.132;2022-12-13T07:43:47;-4.80;99.90
24097;DHT22;12275;48.550;12.132;2022-12-13T07:46:12;-4.80;99.90
24097;DHT22;12275;48.550;12.132;2022-12-13T07:48:38;-4.70;99.90
24097;DHT22;12275;48.550;12.132;2022-12-13T07:51:05;-4.70;99.90
24097;DHT22;12275;48.550;12.132;2022-12-13T07:53:32;-4.50;99.90
24097;DHT22;12275;48.550;12.132;2022-12-13T07:56:01;-4.60;99.90
24097;DHT22;12275;48.550;12.132;2022-12-13T07:58:27;-4.50;99.90
24097;DHT22;12275;48.550;12.132;2022-12-13T08:00:57;-4.50;99.90
24097;DHT22;12275;48.550;12.132;2022-12-13T08:03:23;-4.40;99.90
24097;DHT22;12275;48.550;12.132;2022-12-13T08:05:48;-4.40;99.90
24097;DHT22;12275;48.550;12.132;2022-12-13T08:08:14;-4.30;99.90
24097;DHT22;12275;48.550;12.132;2022-12-13T08:10:39;-4.30;99.90
24097;DHT22;12275;48.550;12.132;2022-12-13T08:13:05;-4.30;99.90
24097;DHT22;12275;48.550;12.132;2022-12-13T08:15:31;-4.30;99.90
24097;DHT22;12275;48.550;12.132;2022-12-13T08:17:57;-4.30;99.90
24097;DHT22;12275;48.550;12.132;2022-12-13T08:20:25;-4.20;99.90
24097;DHT22;12275;48.550;12.132;2022-12-13T08:22:54;-4.20;99.90
24097;DHT22;12275;48.550;12.132;2022-12-13T08:25:20;-4.20;99.90
24097;DHT22;12275;48.550;12.132;2022-12-13T08:27:45;-4.20;99.90
24097;DHT22;12275;48.550;12.132;2022-12-13T08:30:11;-4.20;99.90
24097;DHT22;12275;48.550;12.132;2022-12-13T08:32:37;-4.10;99.90
24097;DHT22;12275;48.550;12.132;2022-12-13T08:35:02;-4.10;99.90
24097;DHT22;12275;48.550;12.132;2022-12-13T08:37:28;-4.00;99.90
24097;DHT22;12275;48.550;12.132;2022-12-13T08:39:53;-3.80;99.90
24097;DHT22;12275;48.550;12.132;2022-12-13T08:42:19;-3.60;99.90
24097;DHT22;12275;48.550;12.132;2022-12-13T08:44:45;-3.50;99.90
24097;DHT22;12275;48.550;12.132;2022-12-13T08:47:11;-3.50;99.90
24097;DHT22;12275;48.550;12.132;2022-12-13T08:49:37;-3.40;99.90
24097;DHT22;12275;48.550;12.132;2022-12-13T08:52:03;-3.20;99.90
24097;DHT22;12275;48.550;12.132;2022-12-13T08:54:31;-3.10;99.90
24097;DHT22;12275;48.550;12.132;2022-12-13T08:56:57;-3.00;99.90
24097;DHT22;12275;48.550;12.132;2022-12-13T08:59:22;-2.90;99.90
24097;DHT22;12275;48.550;12.132;2022-12-13T09:01:49;-2.80;99.90
24097;DHT22;12275;48.550;12.132;2022-12-13T09:04:15;-2.70;99.90
24097;DHT22;12275;48.550;12.132;2022-12-13T09:06:40;-2.70;99.90
24097;DHT22;12275;48.550;12.132;2022-12-13T09:09:06;-2.60;99.90
24097;DHT22;12275;48.550;12.132;2022-12-13T09:11:32;-2.50;99.90
24097;DHT22;12275;48.550;12.132;2022-12-13T09:13:57;-2.40;99.90
24097;DHT22;12275;48.550;12.132;2022-12-13T09:16:23;-2.40;99.90
24097;DHT22;12275;48.550;12.132;2022-12-13T09:18:49;-2.20;99.90
24097;DHT22;12275;48.550;12.132;2022-12-13T09:21:14;-2.20;99.90
24097;DHT22;12275;48.550;12.132;2022-12-13T09:23:40;-2.10;99.90
24097;DHT22;12275;48.550;12.132;2022-12-13T09:26:06;-2.00;99.90
24097;DHT22;12275;48.550;12.132;2022-12-13T09:28:32;-2.00;99.90
24097;DHT22;12275;48.550;12.132;2022-12-13T09:30:58;-1.90;99.90
24097;DHT22;12275;48.550;12.132;2022-12-13T09:33:24;-1.80;99.90
24097;DHT22;12275;48.550;12.132;2022-12-13T09:35:50;-1.70;99.90
24097;DHT22;12275;48.550;12.132;2022-12-13T09:38:16;-1.70;99.90
24097;DHT22;12275;48.550;12.132;2022-12-13T09:40:42;-1.60;99.90
24097;DHT22;12275;48.550;12.132;2022-12-13T09:43:15;-1.60;99.90
24097;DHT22;12275;48.550;12.132;2022-12-13T09:45:43;-1.60;99.90
24097;DHT22;12275;48.550;12.132;2022-12-13T09:48:10;-1.50;99.90
24097;DHT22;12275;48.550;12.132;2022-12-13T09:50:36;-1.50;99.90
24097;DHT22;12275;48.550;12.132;2022-12-13T09:53:03;-1.50;99.90
24097;DHT22;12275;48.550;12.132;2022-12-13T09:55:33;-1.50;99.90
24097;DHT22;12275;48.550;12.132;2022-12-13T09:58:05;-1.40;99.90
24097;DHT22;12275;48.550;12.132;2022-12-13T10:00:34;-1.40;99.90
24097;DHT22;12275;48.550;12.132;2022-12-13T10:03:00;-1.40;99.90
24097;DHT22;12275;48.550;12.132;2022-12-13T10:05:27;-1.30;99.90
24097;DHT22;12275;48.550;12.132;2022-12-13T10:07:54;-1.20;99.90
24097;DHT22;12275;48.550;12.132;2022-12-13T10:10:20;-1.20;99.90
24097;DHT22;12275;48.550;12.132;2022-12-13T10:12:48;-1.20;99.90
24097;DHT22;12275;48.550;12.132;2022-12-13T10:15:16;-1.20;99.90
24097;DHT22;12275;48.550;12.132;2022-12-13T10:17:43;-1.10;99.90
24097;DHT22;12275;48.550;12.132;2022-12-13T10:20:19;-1.10;99.90
24097;DHT22;12275;48.550;12.132;2022-12-13T10:22:45;-1.00;99.90
24097;DHT22;12275;48.550;12.132;2022-12-13T10:25:10;-1.10;99.90
24097;DHT22;12275;48.550;12.132;2022-12-13T10:27:40;-1.10;99.90
24097;DHT22;12275;48.550;12.132;2022-12-13T10:30:07;-1.10;99.90
24097;DHT22;12275;48.550;12.132;2022-12-13T10:35:27;-1.10;99.90
24097;DHT22;12275;48.550;12.132;2022-12-13T10:37:54;-1.10;99.90
24097;DHT22;12275;48.550;12.132;2022-12-13T10:40:23;-1.00;99.90
24097;DHT22;12275;48.550;12.132;2022-12-13T10:45:33;-0.90;99.90
24097;DHT22;12275;48.550;12.132;2022-12-13T10:47:59;-1.10;99.90
24097;DHT22;12275;48.550;12.132;2022-12-13T10:50:25;-1.10;99.90
24097;DHT22;12275;48.550;12.132;2022-12-13T10:52:51;-1.10;99.90
24097;DHT22;12275;48.550;12.132;2022-12-13T10:55:32;-1.10;99.90
24097;DHT22;12275;48.550;12.132;2022-12-13T10:58:02;-1.20;99.90
24097;DHT22;12275;48.550;12.132;2022-12-13T11:00:41;-1.20;99.90
24097;DHT22;12275;48.550;12.132;2022-12-13T11:03:10;-1.20;99.90
24097;DHT22;12275;48.550;12.132;2022-12-13T11:05:36;-1.40;99.90
24097;DHT22;12275;48.550;12.132;2022-12-13T11:08:20;-1.50;99.90
24097;DHT22;12275;48.550;12.132;2022-12-13T11:10:52;-1.60;99.90
24097;DHT22;12275;48.550;12.132;2022-12-13T11:13:22;-1.60;99.90
24097;DHT22;12275;48.550;12.132;2022-12-13T11:15:50;-1.70;99.90
24097;DHT22;12275;48.550;12.132;2022-12-13T11:18:18;-1.70;99.90
24097;DHT22;12275;48.550;12.132;2022-12-13T11:21:02;-1.70;99.90
24097;DHT22;12275;48.550;12.132;2022-12-13T11:23:30;-1.70;99.90
24097;DHT22;12275;48.550;12.132;2022-12-13T11:25:58;-1.60;99.90
24097;DHT22;12275;48.550;12.132;2022-12-13T11:38:30;-1.60;99.90
24097;DHT22;12275;48.550;12.132;2022-12-13T11:44:07;-1.50;99.90
24097;DHT22;12275;48.550;12.132;2022-12-13T11:46:33;-1.40;99.90
24097;DHT22;12275;48.550;12.132;2022-12-13T11:49:01;-1.40;99.90
24097;DHT22;12275;48.550;12.132;2022-12-13T11:51:34;-1.30;99.90
24097;DHT22;12275;48.550;12.132;2022-12-13T11:54:03;-1.30;99.90
24097;DHT22;12275;48.550;12.132;2022-12-13T11:56:36;-1.30;99.90
24097;DHT22;12275;48.550;12.132;2022-12-13T11:59:21;-1.20;99.90
24097;DHT22;12275;48.550;12.132;2022-12-13T12:02:11;-1.20;99.90
24097;DHT22;12275;48.550;12.132;2022-12-13T12:04:47;-1.10;99.90
24097;DHT22;12275;48.550;12.132;2022-12-13T12:07:57;-1.30;99.90
24097;DHT22;12275;48.550;12.132;2022-12-13T12:10:04;-1.20;99.90
24097;DHT22;12275;48.550;12.132;2022-12-13T12:12:40;-1.20;99.90
24097;DHT22;12275;48.550;12.132;2022-12-13T12:18:14;-1.10;99.90
24097;DHT22;12275;48.550;12.132;2022-12-13T12:20:51;-1.20;99.90
24097;DHT22;12275;48.550;12.132;2022-12-13T12:25:54;-1.30;99.90
24097;DHT22;12275;48.550;12.132;2022-12-13T12:31:13;-1.30;99.90
24097;DHT22;12275;48.550;12.132;2022-12-13T12:36:35;-1.40;99.90
24097;DHT22;12275;48.550;12.132;2022-12-13T12:52:19;-1.30;99.90
24097;DHT22;12275;48.550;12.132;2022-12-13T12:57:25;-1.40;99.90
24097;DHT22;12275;48.550;12.132;2022-12-13T13:00:06;-1.40;99.90
24097;DHT22;12275;48.550;12.132;2022-12-13T13:05:01;-1.40;99.90
24097;DHT22;12275;48.550;12.132;2022-12-13T13:07:31;-1.40;99.90
24097;DHT22;12275;48.550;12.132;2022-12-13T13:09:59;-1.40;99.90
24097;DHT22;12275;48.550;12.132;2022-12-13T13:12:24;-1.40;99.90
24097;DHT22;12275;48.550;12.132;2022-12-13T13:14:51;-1.40;99.90
24097;DHT22;12275;48.550;12.132;2022-12-13T13:19:45;-1.40;99.90
24097;DHT22;12275;48.550;12.132;2022-12-13T13:22:31;-1.50;99.90
24097;DHT22;12275;48.550;12.132;2022-12-13T13:24:58;-1.50;99.90
24097;DHT22;12275;48.550;12.132;2022-12-13T13:27:28;-1.80;99.90
24097;DHT22;12275;48.550;12.132;2022-12-13T13:32:52;-1.80;99.90
24097;DHT22;12275;48.550;12.132;2022-12-13T13:38:00;-1.80;99.90
24097;DHT22;12275;48.550;12.132;2022-12-13T13:40:30;-1.90;99.90
24097;DHT22;12275;48.550;12.132;2022-12-13T13:45:22;-1.90;99.90
24097;DHT22;12275;48.550;12.132;2022-12-13T14:06:30;-1.80;99.90
24097;DHT22;12275;48.550;12.132;2022-12-13T14:09:23;-1.80;99.90
24097;DHT22;12275;48.550;12.132;2022-12-13T14:12:02;-1.80;99.90
24097;DHT22;12275;48.550;12.132;2022-12-13T14:22:49;-2.10;99.90
24097;DHT22;12275;48.550;12.132;2022-12-13T14:27:58;-2.20;99.90
24097;DHT22;12275;48.550;12.132;2022-12-13T14:30:25;-2.10;99.90
24097;DHT22;12275;48.550;12.132;2022-12-13T14:32:50;-2.10;99.90
24097;DHT22;12275;48.550;12.132;2022-12-13T14:38:01;-2.10;99.90
24097;DHT22;12275;48.550;12.132;2022-12-13T14:42:52;-2.20;99.90
24097;DHT22;12275;48.550;12.132;2022-12-13T14:45:22;-2.20;99.90
24097;DHT22;12275;48.550;12.132;2022-12-13T14:47:49;-2.20;99.90
24097;DHT22;12275;48.550;12.132;2022-12-13T14:50:15;-2.20;99.90
24097;DHT22;12275;48.550;12.132;2022-12-13T14:52:42;-2.20;99.90
24097;DHT22;12275;48.550;12.132;2022-12-13T14:55:30;-2.20;99.90
24097;DHT22;12275;48.550;12.132;2022-12-13T14:57:55;-2.20;99.90
24097;DHT22;12275;48.550;12.132;2022-12-13T15:00:23;-2.20;99.90
24097;DHT22;12275;48.550;12.132;2022-12-13T15:02:51;-2.20;99.90
24097;DHT22;12275;48.550;12.132;2022-12-13T15:05:22;-2.20;99.90
24097;DHT22;12275;48.550;12.132;2022-12-13T15:07:48;-2.20;99.90
24097;DHT22;12275;48.550;12.132;2022-12-13T15:10:25;-2.20;99.90
24097;DHT22;12275;48.550;12.132;2022-12-13T15:12:52;-2.20;99.90
24097;DHT22;12275;48.550;12.132;2022-12-13T15:18:03;-2.20;99.90
24097;DHT22;12275;48.550;12.132;2022-12-13T15:20:29;-2.20;99.90
24097;DHT22;12275;48.550;12.132;2022-12-13T15:22:56;-2.10;99.90
24097;DHT22;12275;48.550;12.132;2022-12-13T15:25:22;-2.10;99.90
24097;DHT22;12275;48.550;12.132;2022-12-13T15:27:47;-2.10;99.90
24097;DHT22;12275;48.550;12.132;2022-12-13T15:30:13;-2.10;99.90
24097;DHT22;12275;48.550;12.132;2022-12-13T15:33:00;-2.10;99.90
24097;DHT22;12275;48.550;12.132;2022-12-13T15:35:25;-2.10;99.90
24097;DHT22;12275;48.550;12.132;2022-12-13T15:37:50;-2.20;99.90
24097;DHT22;12275;48.550;12.132;2022-12-13T15:40:17;-2.20;99.90
24097;DHT22;12275;48.550;12.132;2022-12-13T15:42:43;-2.20;99.90
24097;DHT22;12275;48.550;12.132;2022-12-13T15:45:24;-2.20;99.90
24097;DHT22;12275;48.550;12.132;2022-12-13T15:47:50;-2.20;99.90
24097;DHT22;12275;48.550;12.132;2022-12-13T15:52:59;-2.20;99.90
24097;DHT22;12275;48.550;12.132;2022-12-13T15:55:27;-2.20;99.90
24097;DHT22;12275;48.550;12.132;2022-12-13T15:57:56;-2.30;99.90
24097;DHT22;12275;48.550;12.132;2022-12-13T16:00:29;-2.30;99.90
24097;DHT22;12275;48.550;12.132;2022-12-13T16:05:37;-2.30;99.90
24097;DHT22;12275;48.550;12.132;2022-12-13T16:08:05;-2.30;99.90
24097;DHT22;12275;48.550;12.132;2022-12-13T16:10:31;-2.40;99.90
24097;DHT22;12275;48.550;12.132;2022-12-13T16:13:01;-2.40;99.90
24097;DHT22;12275;48.550;12.132;2022-12-13T16:15:30;-2.40;99.90
24097;DHT22;12275;48.550;12.132;2022-12-13T16:18:10;-2.40;99.90
24097;DHT22;12275;48.550;12.132;2022-12-13T16:20:36;-2.40;99.90
24097;DHT22;12275;48.550;12.132;2022-12-13T16:23:01;-2.40;99.90
24097;DHT22;12275;48.550;12.132;2022-12-13T16:25:28;-2.40;99.90
24097;DHT22;12275;48.550;12.132;2022-12-13T16:27:54;-2.40;99.90
24097;DHT22;12275;48.550;12.132;2022-12-13T16:30:24;-2.40;99.90
24097;DHT22;12275;48.550;12.132;2022-12-13T16:32:49;-2.40;99.90
24097;DHT22;12275;48.550;12.132;2022-12-13T16:35:15;-2.40;99.90
24097;DHT22;12275;48.550;12.132;2022-12-13T16:37:41;-2.40;99.90
24097;DHT22;12275;48.550;12.132;2022-12-13T16:40:14;-2.40;99.90
24097;DHT22;12275;48.550;12.132;2022-12-13T16:42:45;-2.40;99.90
24097;DHT22;12275;48.550;12.132;2022-12-13T16:45:11;-2.40;99.90
24097;DHT22;12275;48.550;12.132;2022-12-13T16:47:36;-2.40;99.90
24097;DHT22;12275;48.550;12.132;2022-12-13T16:50:05;-2.40;99.90
24097;DHT22;12275;48.550;12.132;2022-12-13T16:52:34;-2.40;99.90
24097;DHT22;12275;48.550;12.132;2022-12-13T16:54:59;-2.40;99.90
24097;DHT22;12275;48.550;12.132;2022-12-13T16:57:25;-2.40;99.90
24097;DHT22;12275;48.550;12.132;2022-12-13T16:59:51;-2.40;99.90
24097;DHT22;12275;48.550;12.132;2022-12-13T17:02:17;-2.40;99.90
24097;DHT22;12275;48.550;12.132;2022-12-13T17:04:42;-2.50;99.90
24097;DHT22;12275;48.550;12.132;2022-12-13T17:07:08;-2.50;99.90
24097;DHT22;12275;48.550;12.132;2022-12-13T17:09:33;-2.40;99.90
24097;DHT22;12275;48.550;12.132;2022-12-13T17:11:59;-2.50;99.90
24097;DHT22;12275;48.550;12.132;2022-12-13T17:14:25;-2.50;99.90
24097;DHT22;12275;48.550;12.132;2022-12-13T17:16:50;-2.40;99.90
24097;DHT22;12275;48.550;12.132;2022-12-13T17:19:16;-2.50;99.90
24097;DHT22;12275;48.550;12.132;2022-12-13T17:21:42;-2.60;99.90